createdAt,value
2022-09-07T00:01:46.348Z,19.33
2022-09-07T00:04:12.817Z,19.28
2022-09-07T00:06:39.251Z,19.25
2022-09-07T00:09:05.622Z,19.17
2022-09-07T00:11:32.001Z,19.20
2022-09-07T00:13:58.437Z,19.16
2022-09-07T00:16:26.323Z,19.07
2022-09-07T00:18:57.055Z,19.06
2022-09-07T00:21:24.143Z,19.11
2022-09-07T00:23:50.700Z,19.18
2022-09-07T00:26:18.079Z,19.25
2022-09-07T00:28:44.465Z,19.18
2022-09-07T00:31:11.722Z,19.13
2022-09-07T00:33:38.117Z,19.07
2022-09-07T00:36:04.559Z,19.09
2022-09-07T00:38:31.006Z,18.98
2022-09-07T00:40:57.497Z,18.98
2022-09-07T00:43:29.928Z,18.96
2022-09-07T00:45:56.312Z,19.02
2022-09-07T00:48:22.697Z,18.93
2022-09-07T00:50:56.688Z,18.94
2022-09-07T00:53:30.930Z,18.83
2022-09-07T00:55:57.377Z,18.79
2022-09-07T00:58:23.817Z,18.79
2022-09-07T01:00:50.594Z,18.72
2022-09-07T01:03:19.040Z,18.70
2022-09-07T01:05:46.372Z,18.67
2022-09-07T01:08:12.788Z,18.85
2022-09-07T01:10:39.193Z,18.80
2022-09-07T01:13:05.555Z,18.84
2022-09-07T01:15:55.210Z,18.78
2022-09-07T01:18:27.484Z,18.72
2022-09-07T01:20:55.815Z,18.74
2022-09-07T01:23:44.237Z,18.75
2022-09-07T01:26:10.608Z,18.78
2022-09-07T01:28:36.967Z,18.77
2022-09-07T01:31:27.997Z,18.76
2022-09-07T01:34:01.601Z,18.88
2022-09-07T01:36:33.733Z,18.80
2022-09-07T01:39:00.531Z,18.85
2022-09-07T01:41:27.134Z,18.90
2022-09-07T01:43:59.027Z,18.85
2022-09-07T01:46:28.072Z,18.78
2022-09-07T01:48:55.328Z,18.84
2022-09-07T01:51:21.791Z,18.67
2022-09-07T01:53:58.114Z,18.73
2022-09-07T01:56:25.612Z,18.68
2022-09-07T01:58:52.644Z,18.64
2022-09-07T02:01:24.034Z,18.64
2022-09-07T02:03:51.836Z,18.62
2022-09-07T02:06:36.035Z,18.62
2022-09-07T02:09:03.489Z,18.74
2022-09-07T02:11:34.811Z,18.93
2022-09-07T02:14:01.616Z,19.47
2022-09-07T02:16:28.509Z,19.74
2022-09-07T02:19:04.701Z,19.72
2022-09-07T02:21:31.807Z,19.67
2022-09-07T02:24:00.148Z,19.58
2022-09-07T02:26:26.514Z,19.42
2022-09-07T02:28:52.859Z,19.38
2022-09-07T02:31:19.788Z,19.25
2022-09-07T02:33:46.214Z,19.22
2022-09-07T02:36:12.600Z,19.14
2022-09-07T02:38:38.973Z,19.02
2022-09-07T02:41:05.428Z,19.17
2022-09-07T02:43:31.824Z,19.09
2022-09-07T02:46:25.018Z,19.05
2022-09-07T02:49:01.939Z,19.11
2022-09-07T02:51:47.234Z,19.05
2022-09-07T02:54:19.430Z,19.12
2022-09-07T02:56:58.115Z,19.08
2022-09-07T02:59:44.697Z,19.14
2022-09-07T03:02:18.422Z,19.06
2022-09-07T03:04:47.289Z,18.94
2022-09-07T03:07:15.382Z,18.75
2022-09-07T03:09:42.976Z,18.74
2022-09-07T03:12:09.780Z,18.74
2022-09-07T03:14:36.568Z,18.66
2022-09-07T03:17:03.083Z,18.73
2022-09-07T03:19:29.438Z,18.67
2022-09-07T03:21:55.795Z,18.54
2022-09-07T03:24:22.161Z,18.52
2022-09-07T03:26:48.679Z,18.43
2022-09-07T03:29:15.115Z,18.60
2022-09-07T03:31:41.620Z,18.52
2022-09-07T03:34:08.001Z,18.44
2022-09-07T03:36:34.517Z,18.48
2022-09-07T03:39:01.123Z,18.47
2022-09-07T03:41:27.670Z,18.42
2022-09-07T03:43:54.104Z,18.38
2022-09-07T03:46:20.609Z,18.51
2022-09-07T03:48:47.411Z,18.37
2022-09-07T03:51:14.241Z,18.27
2022-09-07T03:53:42.428Z,17.97
2022-09-07T03:56:09.981Z,17.85
2022-09-07T03:58:36.452Z,17.74
2022-09-07T04:01:06.929Z,17.66
2022-09-07T04:03:33.394Z,17.62
2022-09-07T04:06:00.082Z,17.34
2022-09-07T04:08:27.127Z,17.16
2022-09-07T04:10:53.524Z,17.02
2022-09-07T04:13:19.897Z,16.93
2022-09-07T04:15:47.594Z,17.01
2022-09-07T04:18:15.417Z,17.00
2022-09-07T04:20:41.787Z,16.90
2022-09-07T04:23:08.145Z,16.96
2022-09-07T04:25:34.932Z,16.90
2022-09-07T04:28:01.373Z,17.01
2022-09-07T04:30:27.859Z,17.01
2022-09-07T04:32:54.307Z,16.93
2022-09-07T04:35:20.673Z,16.79
2022-09-07T04:37:47.041Z,16.57
2022-09-07T04:40:13.558Z,16.51
2022-09-07T04:42:39.982Z,16.56
2022-09-07T04:45:06.628Z,16.54
2022-09-07T04:47:32.997Z,16.50
2022-09-07T04:49:59.403Z,16.66
2022-09-07T04:52:25.807Z,16.66
2022-09-07T04:54:52.262Z,16.71
2022-09-07T04:57:21.635Z,16.55
2022-09-07T04:59:48.418Z,16.43
2022-09-07T05:02:14.908Z,16.59
2022-09-07T05:04:41.434Z,16.70
2022-09-07T05:07:07.839Z,16.61
2022-09-07T05:09:34.281Z,16.53
2022-09-07T05:12:00.699Z,16.35
2022-09-07T05:14:27.081Z,16.44
2022-09-07T05:16:53.514Z,16.44
2022-09-07T05:19:20.129Z,16.29
2022-09-07T05:21:46.534Z,16.22
2022-09-07T05:24:13.015Z,16.26
2022-09-07T05:26:39.675Z,16.19
2022-09-07T05:31:52.577Z,16.39
2022-09-07T05:34:34.534Z,16.64
2022-09-07T05:37:01.000Z,16.50
2022-09-07T05:39:27.531Z,16.54
2022-09-07T05:41:54.009Z,16.49
2022-09-07T05:47:06.804Z,16.63
2022-09-07T05:49:33.270Z,16.64
2022-09-07T05:51:59.625Z,16.84
2022-09-07T05:54:25.997Z,16.75
2022-09-07T05:56:52.356Z,16.84
2022-09-07T05:59:18.748Z,16.92
2022-09-07T06:01:45.149Z,16.82
2022-09-07T06:04:11.604Z,16.88
2022-09-07T06:06:38.889Z,16.79
2022-09-07T06:09:05.297Z,16.83
2022-09-07T06:11:31.667Z,16.93
2022-09-07T06:13:58.038Z,17.00
2022-09-07T06:16:24.508Z,17.04
2022-09-07T06:18:51.021Z,17.15
2022-09-07T06:21:21.458Z,17.09
2022-09-07T06:23:47.827Z,17.18
2022-09-07T06:26:14.460Z,17.13
2022-09-07T06:28:41.527Z,17.19
2022-09-07T06:31:08.738Z,17.15
2022-09-07T06:33:35.489Z,17.24
2022-09-07T06:36:05.804Z,17.28
2022-09-07T06:38:32.848Z,17.38
2022-09-07T06:43:56.042Z,17.65
2022-09-07T06:49:08.906Z,17.82
2022-09-07T06:51:35.261Z,17.94
2022-09-07T06:56:48.268Z,18.07
2022-09-07T06:59:14.645Z,18.18
2022-09-07T07:01:41.055Z,18.14
2022-09-07T07:04:07.466Z,18.12
2022-09-07T07:06:34.764Z,18.39
2022-09-07T07:09:01.234Z,18.51
2022-09-07T07:11:27.596Z,18.56
2022-09-07T07:13:53.938Z,18.47
2022-09-07T07:16:20.402Z,18.75
2022-09-07T07:18:48.744Z,18.89
2022-09-07T07:21:15.151Z,18.87
2022-09-07T07:23:41.613Z,19.01
2022-09-07T07:26:09.807Z,18.83
2022-09-07T07:31:23.963Z,19.01
2022-09-07T07:33:50.413Z,19.16
2022-09-07T07:36:17.628Z,19.34
2022-09-07T07:39:03.358Z,19.47
2022-09-07T07:44:20.559Z,19.67
2022-09-07T07:46:47.689Z,19.88
2022-09-07T07:49:14.055Z,19.92
2022-09-07T07:54:26.687Z,20.10
2022-09-07T07:56:53.038Z,20.02
2022-09-07T07:59:19.360Z,19.98
2022-09-07T08:01:45.785Z,20.20
2022-09-07T08:04:12.201Z,20.26
2022-09-07T08:06:41.463Z,20.50
2022-09-07T08:09:07.786Z,20.72
2022-09-07T08:11:35.374Z,20.69
2022-09-07T08:14:02.757Z,20.72
2022-09-07T08:16:29.148Z,21.17
2022-09-07T08:18:55.522Z,21.20
2022-09-07T08:21:22.166Z,20.99
2022-09-07T08:23:48.507Z,20.98
2022-09-07T08:26:14.846Z,21.01
2022-09-07T08:28:41.779Z,21.14
2022-09-07T08:31:08.762Z,21.33
2022-09-07T08:33:36.142Z,21.32
2022-09-07T08:36:02.820Z,21.34
2022-09-07T08:38:29.895Z,21.65
2022-09-07T08:40:56.268Z,21.76
2022-09-07T08:43:25.388Z,21.74
2022-09-07T08:45:52.620Z,21.68
2022-09-07T08:48:21.032Z,21.78
2022-09-07T08:50:53.123Z,21.76
2022-09-07T08:53:19.649Z,21.91
2022-09-07T08:55:45.901Z,22.08
2022-09-07T08:58:32.292Z,22.13
2022-09-07T09:06:41.893Z,22.78
2022-09-07T09:09:12.052Z,22.90
2022-09-07T09:11:57.184Z,23.09
2022-09-07T09:14:23.567Z,23.16
2022-09-07T09:16:51.335Z,23.36
2022-09-07T09:19:20.659Z,23.13
2022-09-07T09:21:46.983Z,23.17
2022-09-07T09:24:16.836Z,23.25
2022-09-07T09:26:44.287Z,23.09
2022-09-07T09:29:14.253Z,22.96
2022-09-07T09:31:40.647Z,23.30
2022-09-07T09:34:08.106Z,23.49
2022-09-07T09:36:45.670Z,23.41
2022-09-07T09:39:22.015Z,23.16
2022-09-07T09:41:48.459Z,23.39
2022-09-07T09:44:15.127Z,23.66
2022-09-07T09:46:41.535Z,23.85
2022-09-07T09:49:22.456Z,24.23
2022-09-07T09:54:43.395Z,24.11
2022-09-07T09:57:14.872Z,23.77
2022-09-07T09:59:59.247Z,23.70
2022-09-07T10:05:20.196Z,23.64
2022-09-07T10:07:50.783Z,23.45
2022-09-07T10:10:17.176Z,23.79
2022-09-07T10:12:43.508Z,24.16
2022-09-07T10:15:20.816Z,24.11
2022-09-07T10:17:47.496Z,24.61
2022-09-07T10:20:16.040Z,25.02
2022-09-07T10:23:00.784Z,24.68
2022-09-07T10:25:37.136Z,24.45
2022-09-07T10:28:15.755Z,23.78
2022-09-07T10:30:42.122Z,23.97
2022-09-07T10:33:41.075Z,24.18
2022-09-07T10:36:13.567Z,24.19
2022-09-07T10:38:42.012Z,24.12
2022-09-07T10:41:08.519Z,23.93
2022-09-07T10:43:40.929Z,23.73
2022-09-07T10:49:11.910Z,23.90
2022-09-07T10:51:53.492Z,24.03
2022-09-07T10:54:35.526Z,23.86
2022-09-07T10:57:08.243Z,23.90
2022-09-07T11:02:27.073Z,24.34
2022-09-07T11:04:59.615Z,24.29
2022-09-07T11:07:25.902Z,24.23
2022-09-07T11:09:55.317Z,24.37
2022-09-07T11:12:27.379Z,24.58
2022-09-07T11:15:08.072Z,25.33
2022-09-07T11:17:45.313Z,25.45
2022-09-07T11:20:13.743Z,25.56
2022-09-07T11:23:03.481Z,25.74
2022-09-07T11:25:46.701Z,26.61
2022-09-07T11:28:14.639Z,26.84
2022-09-07T11:30:42.827Z,26.90
2022-09-07T11:33:12.180Z,26.69
2022-09-07T11:35:49.796Z,25.84
2022-09-07T11:38:28.247Z,26.12
2022-09-07T11:40:59.722Z,26.38
2022-09-07T11:43:36.576Z,26.53
2022-09-07T11:46:06.165Z,25.73
2022-09-07T11:48:52.869Z,26.45
2022-09-07T11:51:19.229Z,26.94
2022-09-07T11:53:46.511Z,27.12
2022-09-07T11:56:21.371Z,27.46
2022-09-07T11:58:47.828Z,28.01
2022-09-07T12:01:19.908Z,27.84
2022-09-07T12:03:56.504Z,27.64
2022-09-07T12:06:35.041Z,26.47
2022-09-07T12:09:08.852Z,27.02
2022-09-07T12:11:53.987Z,27.65
2022-09-07T12:14:38.932Z,27.23
2022-09-07T12:17:25.500Z,27.41
2022-09-07T12:20:12.159Z,27.12
2022-09-07T12:22:38.510Z,26.97
2022-09-07T12:25:08.525Z,27.13
2022-09-07T12:27:34.804Z,27.30
2022-09-07T12:30:04.316Z,27.42
2022-09-07T12:32:58.864Z,27.41
2022-09-07T12:35:28.545Z,27.51
2022-09-07T12:37:55.241Z,27.78
2022-09-07T12:40:30.673Z,27.45
2022-09-07T12:43:12.393Z,26.69
2022-09-07T12:45:38.675Z,26.52
2022-09-07T12:48:07.455Z,26.78
2022-09-07T12:50:42.266Z,27.43
2022-09-07T12:53:10.788Z,27.82
2022-09-07T12:59:02.875Z,26.70
2022-09-07T13:01:29.755Z,26.30
2022-09-07T13:04:15.611Z,26.71
2022-09-07T13:07:02.799Z,27.23
2022-09-07T13:09:36.074Z,27.27
2022-09-07T13:12:04.849Z,27.20
2022-09-07T13:14:34.500Z,27.17
2022-09-07T13:17:19.873Z,27.90
2022-09-07T13:19:46.232Z,28.26
2022-09-07T13:22:31.303Z,28.09
2022-09-07T13:25:13.388Z,27.31
2022-09-07T13:27:43.857Z,27.60
2022-09-07T13:30:16.713Z,27.59
2022-09-07T13:35:30.209Z,27.92
2022-09-07T13:38:00.308Z,27.68
2022-09-07T13:40:39.256Z,26.74
2022-09-07T13:43:05.642Z,27.48
2022-09-07T13:45:45.635Z,28.05
2022-09-07T13:48:30.851Z,28.32
2022-09-07T13:51:03.538Z,27.87
2022-09-07T13:53:34.286Z,27.37
2022-09-07T13:56:06.693Z,27.84
2022-09-07T13:58:34.271Z,28.77
2022-09-07T14:01:01.411Z,28.45
2022-09-07T14:03:28.349Z,28.08
2022-09-07T14:06:13.821Z,27.60
2022-09-07T14:08:40.727Z,26.57
2022-09-07T14:11:23.627Z,26.52
2022-09-07T14:14:09.030Z,26.69
2022-09-07T14:16:35.637Z,27.21
2022-09-07T14:19:02.080Z,26.91
2022-09-07T14:21:28.416Z,26.69
2022-09-07T14:23:57.069Z,26.38
2022-09-07T14:26:23.512Z,25.53
2022-09-07T14:28:53.978Z,25.65
2022-09-07T14:31:20.882Z,25.97
2022-09-07T14:33:47.228Z,25.99
2022-09-07T14:36:39.504Z,25.62
2022-09-07T14:39:07.233Z,25.52
2022-09-07T14:41:34.760Z,25.47
2022-09-07T14:44:01.217Z,25.58
2022-09-07T14:46:33.044Z,25.31
2022-09-07T14:49:00.582Z,25.31
2022-09-07T14:51:35.287Z,25.22
2022-09-07T14:54:03.598Z,25.06
2022-09-07T14:56:31.464Z,25.13
2022-09-07T14:58:57.794Z,25.19
2022-09-07T15:01:39.770Z,25.18
2022-09-07T15:04:14.793Z,25.14
2022-09-07T15:09:30.741Z,25.21
2022-09-07T15:12:04.018Z,25.09
2022-09-07T15:14:30.342Z,24.99
2022-09-07T15:19:44.335Z,24.80
2022-09-07T15:22:10.964Z,24.90
2022-09-07T15:24:37.288Z,24.99
2022-09-07T15:27:11.076Z,24.94
2022-09-07T15:29:37.408Z,24.89
2022-09-07T15:32:08.000Z,24.64
2022-09-07T15:34:35.201Z,24.64
2022-09-07T15:37:02.657Z,24.71
2022-09-07T15:39:30.514Z,24.83
2022-09-07T15:41:57.669Z,24.79
2022-09-07T15:44:26.385Z,24.79
2022-09-07T15:49:47.417Z,24.54
2022-09-07T15:52:16.596Z,24.60
2022-09-07T15:54:43.490Z,24.59
2022-09-07T15:59:56.288Z,24.34
2022-09-07T16:05:09.677Z,24.30
2022-09-07T16:10:22.471Z,24.13
2022-09-07T16:13:11.104Z,24.07
2022-09-07T16:15:35.475Z,24.08
2022-09-07T16:18:01.900Z,23.97
2022-09-07T16:20:32.006Z,23.88
2022-09-07T16:23:14.893Z,23.81
2022-09-07T16:25:43.389Z,23.65
2022-09-07T16:28:10.126Z,23.59
2022-09-07T16:30:38.989Z,23.59
2022-09-07T16:33:05.456Z,23.39
2022-09-07T16:35:32.950Z,23.36
2022-09-07T16:40:48.181Z,23.22
2022-09-07T16:43:16.748Z,23.33
2022-09-07T16:48:31.948Z,23.38
2022-09-07T16:51:02.031Z,23.39
2022-09-07T16:53:29.295Z,23.36
2022-09-07T16:56:11.927Z,23.12
2022-09-07T16:58:38.910Z,23.14
2022-09-07T17:01:05.867Z,23.08
2022-09-07T17:03:32.456Z,22.95
2022-09-07T17:06:02.584Z,22.81
2022-09-07T17:08:29.612Z,22.72
2022-09-07T17:11:01.262Z,22.42
2022-09-07T17:13:28.297Z,22.31
2022-09-07T17:15:54.948Z,22.19
2022-09-07T17:19:28.861Z,22.18
2022-09-07T17:21:08.225Z,22.13
2022-09-07T17:23:41.943Z,22.08
2022-09-07T17:26:12.025Z,21.97
2022-09-07T17:28:38.554Z,22.14
2022-09-07T17:31:07.904Z,22.08
2022-09-07T17:33:34.619Z,21.90
2022-09-07T17:36:01.494Z,22.00
2022-09-07T17:41:19.935Z,21.96
2022-09-07T17:43:46.614Z,21.76
2022-09-07T17:46:14.470Z,21.61
2022-09-07T17:48:40.836Z,21.66
2022-09-07T17:51:07.835Z,21.76
2022-09-07T17:53:34.831Z,21.61
2022-09-07T17:56:01.292Z,21.55
2022-09-07T17:58:27.639Z,21.46
2022-09-07T18:00:54.507Z,21.34
2022-09-07T18:03:21.406Z,21.25
2022-09-07T18:05:52.624Z,21.09
2022-09-07T18:08:18.954Z,20.92
2022-09-07T18:13:36.325Z,20.69
2022-09-07T18:16:13.354Z,20.72
2022-09-07T18:18:39.714Z,20.64
2022-09-07T18:21:16.349Z,20.56
2022-09-07T18:23:42.711Z,20.48
2022-09-07T18:26:09.278Z,20.65
2022-09-07T18:31:22.071Z,20.75
2022-09-07T18:33:48.527Z,20.57
2022-09-07T18:36:14.924Z,20.56
2022-09-07T18:38:41.268Z,20.55
2022-09-07T18:41:09.287Z,20.57
2022-09-07T18:43:36.559Z,20.53
2022-09-07T18:46:05.715Z,20.60
2022-09-07T18:48:32.156Z,20.57
2022-09-07T18:51:00.222Z,20.49
2022-09-07T18:53:26.720Z,20.45
2022-09-07T18:55:53.090Z,20.43
2022-09-07T18:58:19.469Z,20.43
2022-09-07T19:00:47.552Z,20.34
2022-09-07T19:03:14.204Z,20.32
2022-09-07T19:05:55.926Z,20.23
2022-09-07T19:08:22.287Z,20.19
2022-09-07T19:10:48.907Z,20.37
2022-09-07T19:13:15.439Z,20.35
2022-09-07T19:15:41.779Z,20.35
2022-09-07T19:18:08.164Z,20.41
2022-09-07T19:20:34.504Z,20.38
2022-09-07T19:23:00.853Z,20.07
2022-09-07T19:25:27.232Z,19.80
2022-09-07T19:27:53.572Z,19.55
2022-09-07T19:30:19.935Z,19.55
2022-09-07T19:32:46.272Z,19.57
2022-09-07T19:35:12.665Z,19.44
2022-09-07T19:37:39.086Z,19.25
2022-09-07T19:40:05.797Z,18.96
2022-09-07T19:42:32.159Z,18.91
2022-09-07T19:44:58.689Z,18.87
2022-09-07T19:47:25.022Z,19.00
2022-09-07T19:49:52.258Z,18.71
2022-09-07T19:52:18.787Z,18.69
2022-09-07T19:54:45.793Z,18.59
2022-09-07T19:57:12.152Z,18.55
2022-09-07T19:59:38.469Z,18.47
2022-09-07T20:02:04.841Z,18.48
2022-09-07T20:04:31.236Z,18.54
2022-09-07T20:06:57.621Z,18.32
2022-09-07T20:09:24.791Z,18.21
2022-09-07T20:11:51.165Z,18.16
2022-09-07T20:14:17.614Z,18.17
2022-09-07T20:16:44.108Z,18.24
2022-09-07T20:19:11.094Z,18.19
2022-09-07T20:21:37.472Z,18.26
2022-09-07T20:24:04.081Z,18.28
2022-09-07T20:26:32.202Z,18.37
2022-09-07T20:29:16.705Z,18.06
2022-09-07T20:31:46.872Z,17.99
2022-09-07T20:34:13.397Z,17.96
2022-09-07T20:36:40.035Z,17.87
2022-09-07T20:39:06.372Z,17.95
2022-09-07T20:41:33.901Z,17.99
2022-09-07T20:44:00.649Z,17.98
2022-09-07T20:46:27.378Z,18.00
2022-09-07T20:48:53.849Z,17.93
2022-09-07T20:51:21.708Z,17.91
2022-09-07T20:53:48.262Z,18.03
2022-09-07T20:56:18.181Z,17.99
2022-09-07T20:58:44.717Z,18.04
2022-09-07T21:01:11.398Z,18.08
2022-09-07T21:03:38.042Z,18.07
2022-09-07T21:06:04.900Z,17.92
2022-09-07T21:08:34.158Z,18.07
2022-09-07T21:11:04.143Z,18.16
2022-09-07T21:13:30.495Z,18.07
2022-09-07T21:15:56.889Z,18.09
2022-09-07T21:18:23.280Z,18.16
2022-09-07T21:21:18.480Z,17.99
2022-09-07T21:23:43.192Z,17.94
2022-09-07T21:26:09.512Z,17.91
2022-09-07T21:28:35.886Z,17.74
2022-09-07T21:31:03.479Z,17.55
2022-09-07T21:33:30.081Z,17.49
2022-09-07T21:35:56.693Z,17.62
2022-09-07T21:38:23.353Z,17.58
2022-09-07T21:40:49.720Z,17.50
2022-09-07T21:43:16.040Z,17.55
2022-09-07T21:45:42.360Z,17.81
2022-09-07T21:48:08.726Z,17.59
2022-09-07T21:50:35.071Z,17.70
2022-09-07T21:53:01.553Z,17.68
2022-09-07T21:55:27.923Z,17.70
2022-09-07T21:57:54.285Z,17.93
2022-09-07T22:00:22.686Z,18.07
2022-09-07T22:02:50.988Z,17.99
2022-09-07T22:05:17.373Z,18.02
2022-09-07T22:07:43.706Z,17.81
2022-09-07T22:10:10.030Z,17.88
2022-09-07T22:12:36.375Z,17.64
2022-09-07T22:15:03.095Z,17.50
2022-09-07T22:17:29.447Z,17.50
2022-09-07T22:19:55.770Z,17.34
2022-09-07T22:22:22.147Z,17.33
2022-09-07T22:24:48.467Z,17.25
2022-09-07T22:27:14.874Z,17.26
2022-09-07T22:29:41.194Z,17.34
2022-09-07T22:32:07.527Z,17.23
2022-09-07T22:34:33.877Z,17.24
2022-09-07T22:37:00.223Z,17.40
2022-09-07T22:39:26.540Z,17.43
2022-09-07T22:41:53.301Z,17.42
2022-09-07T22:44:19.696Z,17.64
2022-09-07T22:46:46.464Z,17.55
2022-09-07T22:49:13.469Z,17.36
2022-09-07T22:51:39.796Z,17.26
2022-09-07T22:54:06.120Z,17.13
2022-09-07T22:56:32.851Z,17.06
2022-09-07T22:58:59.936Z,17.03
2022-09-07T23:01:26.759Z,17.08
2022-09-07T23:03:53.371Z,17.08
2022-09-07T23:06:21.465Z,17.05
2022-09-07T23:08:48.040Z,17.01
2022-09-07T23:11:14.699Z,17.09
2022-09-07T23:13:41.042Z,17.19
2022-09-07T23:16:07.551Z,17.27
2022-09-07T23:18:34.074Z,17.36
2022-09-07T23:21:00.843Z,17.30
2022-09-07T23:23:27.313Z,17.40
2022-09-07T23:25:53.656Z,17.48
2022-09-07T23:28:19.980Z,17.49
2022-09-07T23:30:46.724Z,17.51
2022-09-07T23:33:13.270Z,17.60
2022-09-07T23:35:39.586Z,17.50
2022-09-07T23:38:05.903Z,17.57
2022-09-07T23:40:34.185Z,17.46
2022-09-07T23:43:00.660Z,17.45
2022-09-07T23:45:27.246Z,17.33
2022-09-07T23:47:53.643Z,17.34
2022-09-07T23:50:20.002Z,17.47
2022-09-07T23:52:46.322Z,17.25
2022-09-07T23:55:13.225Z,17.35
2022-09-07T23:57:39.545Z,17.43
